Airfield :
LOGIN :

Register | Disclaimer

   EN    FR    IT 

 










Legend :    VFR   Marginal VFR   IFR   Intensive IFR   Very Intensive IFR
Visi :
Ceiling :
>= 8 km
>= 3000ft
5 to 8 km
1000 to 3000 ft
1500m to 5 km
500 to 1000 ft
800 to 1500m
200 to 500 ft
< 800m
< 200 ft
Symbols :   Thunderstorms  Fog  Heavy snow  Heavy precipitations  Wind > 20 kt
SIGMETs :     Misc.  Thunderstorms  Icing  Turbulence  Mountain Waves  Volcanic Ashes






- Airport Elevation : 288 ft
- IATA code : BZZ


EGVN - RAF Brize Norton

CURRENT METAR :
  • 170450Z 26001KT 5000 -RA SCT032 BKN046 04/03 Q1009 NOSIG RMK WHT WHT

EXPIRED METARs :
  • 170420Z 21001KT 9999 -RA SCT032 BKN046 04/03 Q1008 TEMPO 6000 RMK BLU TEMPO WHT
  • 170350Z AUTO /////KT //// // ///////// ///// Q////
  • 170250Z 21001KT 9999 -RA FEW014 BKN045 04/03 Q1008 NOSIG RMK BLU BLU
  • 170220Z 25001KT 9999 FEW014 BKN050 04/03 Q1008 NOSIG RMK BLU BLU

TAF TAF EGVN
Valid from the 17 at 03:00 until the 18 at 03:00 UTC


170136Z 1703/1803 VRB05KT 9999 SCT040
PROB40 1703/1711 3000 BR
PROB30 1703/1709 0500 FZFG VV///
BECMG 1711/1714 BKN012



MET'MAP, your aeronautical weather chart ! - Copyright ORBIFLY December 2007 - Disclaimer

ORBIFLY MET'MAP TEAM :

Programming & Development : Alexandra Zaïnal
Concept & Development : Baudouin d'Aumeries
Co-Development & Prog : Marc-Olivier Méhu
Technical & hardware support : Manuel Goepfert

Contact : metmap@orbifly.com




SOURCES & CREDITS :

   NOAA